Time;durP1;ratioP1;P1;durP2;ratioP2;P2;SDS_P1;SDS_P2;PMS_P1;PMS_P2;Temp;Humidity;BMP_temperature;BMP_pressure;BME280_temperature;BME280_humidity;BME280_pressure;Samples;Min_cycle;Max_cycle;Signal;HPM_P1;HPM_P2
2020/12/03 00:01:08;;;;;;;39.40;18.07;;;;;;;-11.08;79.87;93339.40;1809941;79;21186;-79
2020/12/03 00:03:38;;;;;;;38.53;15.97;;;;;;;-11.11;79.80;93338.08;1821735;77;21159;-79
2020/12/03 00:06:29;;;;;;;39.77;15.30;;;;;;;-11.13;79.79;93339.37;1788450;79;21595;-77
2020/12/03 00:09:04;;;;;;;50.00;21.83;;;;;;;-11.11;79.99;93345.95;1832932;77;21195;-78
2020/12/03 00:11:35;;;;;;;38.17;15.47;;;;;;;-11.09;79.71;93349.13;1827531;77;21091;-79
2020/12/03 00:14:03;;;;;;;44.57;19.87;;;;;;;-11.14;79.45;93336.50;1857044;76;21195;-79
2020/12/03 00:16:32;;;;;;;36.40;15.90;;;;;;;-11.22;79.48;93351.47;1872783;76;21143;-80
2020/12/03 00:19:01;;;;;;;27.57;13.97;;;;;;;-11.26;79.64;93350.67;1850541;77;22038;-80
2020/12/03 00:21:44;;;;;;;32.63;13.23;;;;;;;-11.22;79.94;93352.78;1810283;79;21144;-77
2020/12/03 00:24:16;;;;;;;49.13;19.13;;;;;;;-11.15;80.14;93354.09;1817637;78;21680;-79
2020/12/03 00:26:44;;;;;;;47.67;20.40;;;;;;;-11.10;79.84;93344.89;1778847;78;21155;-79
2020/12/03 00:29:12;;;;;;;29.00;14.53;;;;;;;-11.15;79.45;93352.78;1834709;77;21159;-77
2020/12/03 00:31:43;;;;;;;32.47;15.33;;;;;;;-11.18;79.24;93345.42;1862631;75;21684;-79
2020/12/03 00:34:11;;;;;;;33.87;14.10;;;;;;;-11.22;79.04;93357.50;1851436;75;21234;-78
2020/12/03 00:36:39;;;;;;;35.13;16.83;;;;;;;-11.23;78.98;93362.50;1858902;75;21581;-78
2020/12/03 00:39:10;;;;;;;35.53;16.27;;;;;;;-11.26;79.13;93359.08;1860400;76;21134;-79
2020/12/03 00:41:38;;;;;;;37.73;17.33;;;;;;;-11.25;79.20;93363.27;1847245;77;21147;-80
2020/12/03 00:44:06;;;;;;;29.60;12.80;;;;;;;-11.28;79.18;93360.66;1825356;77;21714;-76
2020/12/03 00:46:34;;;;;;;23.77;10.13;;;;;;;-11.30;79.30;93355.41;1784950;79;21200;-77
2020/12/03 00:49:03;;;;;;;26.57;10.70;;;;;;;-11.29;79.28;93353.81;1861226;76;21158;-77
2020/12/03 00:51:32;;;;;;;27.73;11.53;;;;;;;-11.26;79.53;93354.61;1811340;79;21133;-78
2020/12/03 00:54:01;;;;;;;31.70;14.50;;;;;;;-11.20;79.81;93350.70;1844963;77;21135;-79
2020/12/03 00:56:29;;;;;;;32.17;13.00;;;;;;;-11.18;79.51;93349.89;1834110;77;21784;-75
2020/12/03 00:58:57;;;;;;;21.63;10.33;;;;;;;-11.21;79.25;93353.82;1849382;76;21186;-78
2020/12/03 01:01:26;;;;;;;30.27;13.53;;;;;;;-11.22;79.22;93352.25;1846815;77;21149;-80
2020/12/03 01:03:54;;;;;;;27.17;10.27;;;;;;;-11.25;79.29;93350.93;1871916;76;21175;-80
2020/12/03 01:06:22;;;;;;;19.23;10.00;;;;;;;-11.27;79.25;93351.73;1777884;79;21233;-78
2020/12/03 01:08:51;;;;;;;33.00;15.23;;;;;;;-11.30;79.22;93358.03;1875816;75;21930;-81
2020/12/03 01:11:21;;;;;;;28.67;12.93;;;;;;;-11.30;79.48;93347.53;1834876;76;21088;-76
2020/12/03 01:13:50;;;;;;;23.93;9.90;;;;;;;-11.32;79.19;93346.48;1824462;77;21140;-77
2020/12/03 01:16:18;;;;;;;43.97;17.30;;;;;;;-11.37;79.35;93341.22;1832700;77;21159;-80
2020/12/03 01:18:47;;;;;;;49.83;19.90;;;;;;;-11.39;79.42;93339.92;1800806;79;21202;-77
2020/12/03 01:21:22;;;;;;;22.83;9.90;;;;;;;-11.42;79.26;93338.59;1867099;76;21596;-82
2020/12/03 01:23:51;;;;;;;17.33;8.50;;;;;;;-11.44;79.10;93331.49;1891433;75;21063;-80
2020/12/03 01:26:20;;;;;;;19.37;7.70;;;;;;;-11.46;79.65;93328.89;1835714;77;21634;-79
2020/12/03 01:28:48;;;;;;;17.97;6.57;;;;;;;-11.47;79.58;93328.08;1818375;78;21156;-82
2020/12/03 01:31:17;;;;;;;10.00;4.50;;;;;;;-11.45;79.28;93325.20;1780288;79;21145;-81
2020/12/03 01:33:45;;;;;;;12.03;6.33;;;;;;;-11.54;79.21;93320.48;1812744;79;21264;-76
2020/12/03 01:36:13;;;;;;;12.27;5.77;;;;;;;-11.58;79.83;93322.05;1850799;77;21178;-80
2020/12/03 01:38:42;;;;;;;43.97;17.37;;;;;;;-11.52;80.15;93316.27;1782952;78;21199;-78
2020/12/03 01:41:10;;;;;;;52.27;19.57;;;;;;;-11.48;79.75;93313.39;1789616;79;21161;-80
2020/12/03 01:43:43;;;;;;;37.00;15.83;;;;;;;-11.44;79.49;93300.53;1815076;76;21155;-79
2020/12/03 01:46:11;;;;;;;33.70;15.33;;;;;;;-11.42;79.41;93305.79;1886258;76;21166;-79
2020/12/03 01:48:53;;;;;;;24.67;11.07;;;;;;;-11.40;79.30;93310.77;1748394;82;21178;-79
2020/12/03 01:51:38;;;;;;;28.20;13.63;;;;;;;-11.40;79.30;93304.20;1784452;78;21141;-79
2020/12/03 01:54:12;;;;;;;42.35;18.15;;;;;;;-11.41;79.27;93306.58;1822435;78;27504;-80
2020/12/03 01:57:07;;;;;;;34.40;13.55;;;;;;;-11.45;79.30;93312.88;1826616;77;22404;-79
2020/12/03 01:59:46;;;;;;;21.23;9.58;;;;;;;-11.48;78.94;93320.47;1836223;76;21638;-80
2020/12/03 02:02:15;;;;;;;16.13;7.40;;;;;;;-11.55;79.12;93314.95;1889314;75;21171;-78
2020/12/03 02:04:44;;;;;;;25.60;11.27;;;;;;;-11.55;79.38;93314.16;1809589;78;21301;-78
2020/12/03 02:07:13;;;;;;;17.03;8.37;;;;;;;-11.51;79.35;93312.59;1751627;79;21134;-76
2020/12/03 02:09:41;;;;;;;12.77;6.13;;;;;;;-11.53;79.11;93312.08;1845481;75;21652;-79
2020/12/03 02:12:09;;;;;;;13.07;5.87;;;;;;;-11.55;79.04;93312.32;1854955;76;21833;-77
2020/12/03 02:14:37;;;;;;;29.60;13.60;;;;;;;-11.56;79.18;93312.59;1808102;79;21167;-76
2020/12/03 02:17:06;;;;;;;35.10;15.83;;;;;;;-11.56;78.94;93309.44;1840004;75;21124;-76
2020/12/03 02:19:34;;;;;;;46.63;23.57;;;;;;;-11.56;78.91;93308.13;1891886;75;21198;-80
2020/12/03 02:22:04;;;;;;;39.83;18.57;;;;;;;-11.57;78.91;93303.94;1874286;76;21136;-80
2020/12/03 02:24:36;;;;;;;43.50;17.63;;;;;;;-11.56;78.95;93305.51;1812067;78;22191;-79
2020/12/03 02:27:07;;;;;;;33.87;13.90;;;;;;;-11.53;78.88;93306.30;1788385;79;21200;-79
2020/12/03 02:29:36;;;;;;;26.93;11.63;;;;;;;-11.55;78.66;93298.42;1758524;80;21586;-79
2020/12/03 02:32:06;;;;;;;29.33;12.00;;;;;;;-11.58;78.54;93294.50;1802953;78;21111;-78
2020/12/03 02:34:34;;;;;;;27.00;12.67;;;;;;;-11.62;78.58;93301.82;1816453;79;21633;-80
2020/12/03 02:37:03;;;;;;;28.80;13.13;;;;;;;-11.68;78.91;93299.73;1817103;79;21179;-79
2020/12/03 02:39:33;;;;;;;21.20;10.03;;;;;;;-11.71;79.18;93296.31;1801718;79;21460;-81
2020/12/03 02:42:02;;;;;;;28.50;12.03;;;;;;;-11.69;79.32;93299.47;1849161;75;21092;-76
2020/12/03 02:44:30;;;;;;;32.00;14.60;;;;;;;-11.70;79.25;93305.75;1819424;76;21653;-77
2020/12/03 02:46:58;;;;;;;27.70;13.30;;;;;;;-11.73;79.13;93298.42;1826115;75;21265;-79
2020/12/03 02:49:26;;;;;;;27.77;11.77;;;;;;;-11.71;79.06;93294.22;1861835;75;22048;-81
2020/12/03 02:51:57;;;;;;;19.57;8.77;;;;;;;-11.76;78.94;93290.54;1900118;75;21205;-79
2020/12/03 02:54:25;;;;;;;24.83;11.90;;;;;;;-11.80;78.77;93290.80;1847824;75;21198;-78
2020/12/03 02:56:53;;;;;;;29.60;14.57;;;;;;;-11.82;79.00;93289.47;1858395;76;21178;-79
2020/12/03 02:59:21;;;;;;;26.53;12.57;;;;;;;-11.83;79.06;93285.31;1792564;79;21200;-77
2020/12/03 03:01:50;;;;;;;23.33;10.03;;;;;;;-11.85;79.14;93284.24;1777521;79;21641;-79
2020/12/03 03:04:18;;;;;;;25.03;10.90;;;;;;;-11.81;79.24;93294.48;1770194;80;21191;-80
2020/12/03 03:06:48;;;;;;;30.27;14.47;;;;;;;-11.85;79.00;93302.60;1768144;79;21211;-78
2020/12/03 03:09:16;;;;;;;27.83;12.83;;;;;;;-11.91;79.16;93300.25;1819910;76;21625;-77
2020/12/03 03:11:46;;;;;;;33.23;13.83;;;;;;;-11.96;79.97;93302.31;1892724;75;21205;-80
2020/12/03 03:14:14;;;;;;;20.23;8.70;;;;;;;-11.95;79.78;93301.29;1848974;77;22074;-76
2020/12/03 03:16:42;;;;;;;30.17;11.63;;;;;;;-11.94;79.47;93304.17;1811412;79;21199;-77
2020/12/03 03:19:14;;;;;;;24.10;10.77;;;;;;;-11.95;79.25;93301.81;1821490;78;21163;-77
2020/12/03 03:21:43;;;;;;;17.83;8.23;;;;;;;-11.97;79.43;93298.65;1849946;77;21167;-80
2020/12/03 03:24:11;;;;;;;21.07;10.60;;;;;;;-11.97;79.64;93306.52;1826107;77;21154;-80
2020/12/03 03:26:39;;;;;;;25.70;12.57;;;;;;;-11.97;79.73;93303.37;1823251;77;21164;-78
2020/12/03 03:29:08;;;;;;;23.17;8.83;;;;;;;-11.94;79.67;93296.30;1833440;76;21672;-78
2020/12/03 03:31:36;;;;;;;20.43;9.70;;;;;;;-11.92;79.79;93292.91;1777268;79;21179;-80
2020/12/03 03:34:04;;;;;;;18.13;8.37;;;;;;;-11.91;79.20;93285.83;1834110;77;21192;-79
2020/12/03 03:36:32;;;;;;;20.70;8.60;;;;;;;-11.93;79.06;93299.70;1805922;78;21163;-79
2020/12/03 03:39:00;;;;;;;19.77;9.40;;;;;;;-11.99;79.10;93291.05;1804479;77;21849;-81
2020/12/03 03:41:28;;;;;;;12.23;5.90;;;;;;;-11.97;79.48;93301.27;1824768;77;21192;-80
2020/12/03 03:43:56;;;;;;;25.97;10.40;;;;;;;-11.92;79.75;93293.41;1833984;78;21199;-81
2020/12/03 03:46:25;;;;;;;22.40;9.70;;;;;;;-11.90;79.47;93293.95;1823599;78;21056;-79
2020/12/03 03:48:53;;;;;;;21.10;9.87;;;;;;;-11.88;79.29;93286.59;1829230;77;21156;-81
2020/12/03 03:51:21;;;;;;;41.83;18.67;;;;;;;-11.84;79.09;93283.75;1818506;78;21501;-79
2020/12/03 03:53:50;;;;;;;50.07;21.70;;;;;;;-11.84;79.00;93278.50;1863610;75;21545;-80
2020/12/03 03:56:18;;;;;;;46.30;19.03;;;;;;;-11.90;78.78;93273.75;1891172;75;21467;-77
2020/12/03 03:58:47;;;;;;;42.57;16.70;;;;;;;-11.97;78.76;93274.52;1823760;78;21654;-78
2020/12/03 04:01:15;;;;;;;39.93;17.27;;;;;;;-12.02;79.24;93278.46;1787887;78;21208;-81
2020/12/03 04:03:43;;;;;;;37.40;15.37;;;;;;;-12.07;79.62;93274.00;1750433;80;22077;-82
2020/12/03 04:06:11;;;;;;;44.27;18.83;;;;;;;-12.11;79.85;93275.56;1852114;76;21226;-76
2020/12/03 04:08:40;;;;;;;40.77;17.17;;;;;;;-12.14;79.75;93265.59;1830587;77;21156;-82
2020/12/03 04:11:08;;;;;;;40.17;18.83;;;;;;;-12.14;79.48;93265.59;1804095;79;21172;-78
2020/12/03 04:13:37;;;;;;;51.17;21.87;;;;;;;-12.18;79.28;93263.22;1785661;79;21159;-80
2020/12/03 04:16:05;;;;;;;37.70;17.83;;;;;;;-12.20;79.35;93251.41;1812424;78;22226;-80
2020/12/03 04:18:33;;;;;;;47.90;19.87;;;;;;;-12.23;79.58;93256.64;1828292;78;21500;-79
2020/12/03 04:21:03;;;;;;;47.10;20.33;;;;;;;-12.26;79.44;93259.77;1808967;78;21095;-79
2020/12/03 04:23:32;;;;;;;50.93;22.63;;;;;;;-12.29;79.26;93249.83;1817465;76;21283;-77
2020/12/03 04:26:01;;;;;;;51.23;22.20;;;;;;;-12.31;79.24;93246.13;1871700;76;21129;-77
2020/12/03 04:28:29;;;;;;;41.03;17.07;;;;;;;-12.32;79.34;93249.81;1815277;76;21227;-77
2020/12/03 04:30:58;;;;;;;51.90;19.13;;;;;;;-12.27;79.48;93246.41;1869441;76;21178;-82
2020/12/03 04:33:26;;;;;;;45.43;19.47;;;;;;;-12.28;79.22;93247.45;1870610;75;21611;-81
2020/12/03 04:35:55;;;;;;;57.10;23.73;;;;;;;-12.33;79.26;93247.45;1796781;77;21710;-77
2020/12/03 04:38:23;;;;;;;52.53;19.97;;;;;;;-12.36;79.50;93253.20;1891601;75;21185;-82
2020/12/03 04:40:51;;;;;;;40.30;17.23;;;;;;;-12.33;79.64;93243.00;1898472;75;21221;-79
2020/12/03 04:43:42;;;;;;;35.80;15.37;;;;;;;-12.32;79.74;93252.43;1748623;80;21720;-79
2020/12/03 04:46:45;;;;;;;37.27;18.20;;;;;;;-12.30;79.79;93254.78;1853016;76;21175;-80
2020/12/03 04:49:36;;;;;;;29.63;13.10;;;;;;;-12.25;79.71;93254.28;1859978;76;22267;-80
2020/12/03 04:52:33;;;;;;;42.33;20.50;;;;;;;-12.26;79.79;93254.53;1782331;79;21193;-79
2020/12/03 04:55:28;;;;;;;41.23;16.50;;;;;;;-12.25;79.45;93258.74;1867674;75;21196;-80
2020/12/03 04:58:02;;;;;;;34.58;14.07;;;;;;;-12.20;79.24;93256.66;1882112;75;21194;-78
2020/12/03 05:00:50;;;;;;;28.83;13.47;;;;;;;-12.13;79.21;93263.75;1882232;75;21150;-77
2020/12/03 05:03:58;;;;;;;36.30;15.17;;;;;;;-12.11;79.03;93259.83;1883401;75;21694;-80
2020/12/03 05:06:40;;;;;;;31.50;13.97;;;;;;;-12.12;78.93;93264.00;1884546;75;21159;-80
2020/12/03 05:09:17;;;;;;;32.50;15.70;;;;;;;-12.13;78.89;93275.02;1838191;77;21282;-78
2020/12/03 05:11:56;;;;;;;37.27;13.83;;;;;;;-12.11;79.38;93275.56;1852941;75;21369;-75
2020/12/03 05:14:27;;;;;;;31.60;13.87;;;;;;;-12.06;79.46;93274.25;1905105;75;21153;-79
2020/12/03 05:17:23;;;;;;;30.43;13.37;;;;;;;-12.06;79.18;93265.08;1837521;77;21481;-81
2020/12/03 05:20:15;;;;;;;25.23;10.63;;;;;;;-12.09;78.72;93265.59;1844299;77;21183;-79
2020/12/03 05:22:44;;;;;;;16.20;7.27;;;;;;;-12.11;78.30;93264.27;1851033;76;21702;-78
2020/12/03 05:25:17;;;;;;;18.60;9.10;;;;;;;-12.11;78.41;93271.63;1756358;80;21178;-77
2020/12/03 05:27:46;;;;;;;26.20;10.67;;;;;;;-12.06;78.53;93268.23;1774579;79;21178;-78
2020/12/03 05:30:14;;;;;;;21.90;10.13;;;;;;;-12.04;78.46;93262.97;1821938;77;21533;-77
2020/12/03 05:32:42;;;;;;;16.87;8.27;;;;;;;-12.06;78.20;93259.05;1846405;76;21593;-81
2020/12/03 05:35:10;;;;;;;18.83;8.00;;;;;;;-12.05;78.37;93254.06;1812295;79;21653;-77
2020/12/03 05:37:39;;;;;;;13.30;6.03;;;;;;;-12.00;78.41;93254.06;1850474;77;21163;-80
2020/12/03 05:40:21;;;;;;;27.30;10.90;;;;;;;-11.96;78.45;93253.80;1823118;77;21319;-80
2020/12/03 05:42:50;;;;;;;37.97;16.33;;;;;;;-11.94;78.47;93258.80;1816805;76;21147;-78
2020/12/03 05:45:22;;;;;;;36.30;15.33;;;;;;;-11.98;78.10;93256.44;1825665;76;21181;-79
2020/12/03 05:47:51;;;;;;;33.73;15.60;;;;;;;-11.95;78.08;93261.17;1846871;75;22063;-78
2020/12/03 05:50:32;;;;;;;31.27;13.53;;;;;;;-11.93;77.82;93257.22;1817320;77;21186;-79
2020/12/03 05:53:19;;;;;;;23.77;11.93;;;;;;;-11.95;77.50;93261.17;1843595;76;21751;-76
2020/12/03 05:55:47;;;;;;;19.43;9.93;;;;;;;-11.97;77.43;93256.17;1881090;75;21166;-83
2020/12/03 05:58:32;;;;;;;33.90;15.63;;;;;;;-11.97;77.64;93260.63;1823852;77;21194;-78
2020/12/03 06:01:07;;;;;;;30.93;13.43;;;;;;;-11.98;77.77;93261.69;1884057;75;21383;-76
2020/12/03 06:03:59;;;;;;;35.73;16.00;;;;;;;-11.98;77.63;93268.24;1884017;75;21175;-84
2020/12/03 06:06:53;;;;;;;45.27;17.63;;;;;;;-12.03;77.53;93265.09;1872883;76;21167;-78
2020/12/03 06:09:45;;;;;;;43.73;17.85;;;;;;;-12.11;77.49;93259.02;1870625;76;21214;-81
2020/12/03 06:12:30;;;;;;;21.13;10.27;;;;;;;-12.17;77.43;93259.55;1867373;76;21153;-78
2020/12/03 06:15:20;;;;;;;30.27;12.60;;;;;;;-12.26;77.79;93267.13;1878609;76;22675;-80
2020/12/03 06:17:50;;;;;;;27.50;12.57;;;;;;;-12.28;77.93;93272.36;1866528;76;21132;-78
2020/12/03 06:20:57;;;;;;;38.33;15.60;;;;;;;-12.29;78.38;93266.33;1861919;77;21186;-79
2020/12/03 06:23:51;;;;;;;36.60;18.17;;;;;;;-12.22;78.57;93262.66;1809042;79;21649;-81
2020/12/03 06:26:53;;;;;;;22.60;11.77;;;;;;;-12.17;78.36;93256.14;1861650;76;21633;-77
2020/12/03 06:29:44;;;;;;;14.73;8.10;;;;;;;-12.14;78.12;93256.41;1822511;78;21184;-79
2020/12/03 06:32:46;;;;;;;11.53;7.23;;;;;;;-12.15;78.64;93257.44;1786049;78;21112;-78
2020/12/03 06:35:31;;;;;;;12.47;6.33;;;;;;;-12.09;78.90;93254.32;1893954;75;21230;-79
2020/12/03 06:38:07;;;;;;;9.27;4.40;;;;;;;-12.05;79.05;93260.62;1787343;78;21061;-79
2020/12/03 06:40:39;;;;;;;7.43;5.30;;;;;;;-12.01;79.59;93251.19;1796759;78;21140;-81
2020/12/03 06:43:14;;;;;;;11.17;7.93;;;;;;;-11.82;79.54;93251.44;1845618;76;21172;-77
2020/12/03 06:46:03;;;;;;;24.60;12.03;;;;;;;-11.67;79.09;93234.93;1818836;78;21179;-80
2020/12/03 06:49:08;;;;;;;58.40;33.40;;;;;;;-11.28;78.97;93237.28;1830006;76;28594;-76
2020/12/03 06:52:09;;;;;;;71.47;33.23;;;;;;;-10.91;77.99;93241.92;1739932;82;21659;-75
2020/12/03 06:54:51;;;;;;;54.70;25.43;;;;;;;-10.33;77.06;93237.80;1761040;81;21197;-75
2020/12/03 07:00:39;;;;;;;45.87;20.53;;;;;;;-9.70;73.69;93239.78;1786359;78;21642;-76
2020/12/03 07:03:13;;;;;;;44.37;21.80;;;;;;;-9.57;73.45;93237.83;1781826;80;21351;-75
2020/12/03 07:06:04;;;;;;;46.73;21.70;;;;;;;-9.39;73.26;93242.19;1788739;78;21224;-77
2020/12/03 07:09:10;;;;;;;57.43;27.57;;;;;;;-9.11;72.87;93237.98;1739833;80;21630;-75
2020/12/03 07:11:56;;;;;;;53.23;24.92;;;;;;;-8.73;71.63;93237.61;1745413;81;21191;-78
2020/12/03 07:14:58;;;;;;;33.90;19.77;;;;;;;-8.29;70.50;93227.34;1731915;82;21241;-77
2020/12/03 07:18:05;;;;;;;43.87;22.07;;;;;;;-7.92;70.04;93229.23;1734475;79;21199;-77
2020/12/03 07:21:13;;;;;;;40.77;22.53;;;;;;;-7.62;68.31;93225.38;1774666;78;21159;-75
2020/12/03 07:24:07;;;;;;;36.33;19.17;;;;;;;-7.36;67.55;93228.97;1756954;78;21655;-75
2020/12/03 07:27:11;;;;;;;26.33;15.30;;;;;;;-7.09;66.46;93229.05;1757295;81;21687;-76
2020/12/03 07:30:06;;;;;;;26.87;14.63;;;;;;;-6.71;66.00;93231.56;1740204;81;21428;-76
2020/12/03 07:32:57;;;;;;;36.73;17.70;;;;;;;-6.24;65.10;93216.92;1763889;80;21243;-76
2020/12/03 07:35:50;;;;;;;41.40;22.37;;;;;;;-5.99;65.11;93214.30;1743382;81;21185;-76
2020/12/03 07:38:25;;;;;;;43.67;23.77;;;;;;;-5.91;63.19;93208.27;1743571;81;21200;-75
2020/12/03 07:40:53;;;;;;;46.40;24.33;;;;;;;-5.95;62.68;93216.05;1777477;79;21239;-75
2020/12/03 07:43:26;;;;;;;49.57;24.70;;;;;;;-5.80;62.95;93215.47;1791505;79;21183;-75
2020/12/03 07:45:54;;;;;;;53.43;27.80;;;;;;;-5.48;63.62;93210.53;1777997;79;21211;-78
2020/12/03 07:48:29;;;;;;;46.43;24.50;;;;;;;-5.10;61.41;93210.17;1802507;79;21179;-77
2020/12/03 07:51:12;;;;;;;44.85;22.73;;;;;;;-4.76;61.16;93202.96;1770016;80;22655;-75
2020/12/03 07:53:40;;;;;;;47.97;24.73;;;;;;;-4.27;60.39;93202.46;1795299;79;21248;-75
2020/12/03 07:56:31;;;;;;;48.17;26.63;;;;;;;-3.94;59.16;93202.87;1763961;79;21396;-77
2020/12/03 07:59:26;;;;;;;49.77;27.20;;;;;;;-3.73;59.23;93197.73;1740785;78;21704;-76
2020/12/03 08:01:59;;;;;;;41.53;23.07;;;;;;;-3.38;58.14;93209.19;1713705;81;21681;-76
2020/12/03 08:04:36;;;;;;;49.77;25.93;;;;;;;-3.13;57.55;93204.94;1783515;78;21505;-75
2020/12/03 08:07:16;;;;;;;51.00;27.80;;;;;;;-3.02;57.47;93199.52;1765502;78;21207;-76
2020/12/03 08:09:46;;;;;;;54.07;28.93;;;;;;;-2.93;56.03;93194.21;1773411;80;21220;-76
2020/12/03 08:12:22;;;;;;;59.42;32.20;;;;;;;-2.89;55.87;93181.05;1819764;78;21642;-76
2020/12/03 08:14:56;;;;;;;69.75;37.45;;;;;;;-2.93;55.74;93183.56;1811628;78;21920;-76
2020/12/03 08:17:30;;;;;;;51.00;26.97;;;;;;;-2.90;56.83;93176.26;1783514;79;21713;-76
2020/12/03 08:20:14;;;;;;;42.13;22.73;;;;;;;-2.67;56.55;93174.72;1763502;79;21183;-77
2020/12/03 08:22:49;;;;;;;50.48;29.40;;;;;;;-2.39;56.57;93171.88;1771220;77;21163;-77
2020/12/03 08:25:24;;;;;;;28.50;16.20;;;;;;;-2.10;55.77;93167.13;1836789;77;21633;-77
2020/12/03 08:28:04;;;;;;;26.97;14.60;;;;;;;-1.80;55.94;93170.56;1779049;79;21203;-77
2020/12/03 08:30:37;;;;;;;31.17;16.85;;;;;;;-1.59;55.50;93170.56;1797566;79;21406;-77
2020/12/03 08:33:17;;;;;;;40.67;20.20;;;;;;;-1.41;54.67;93165.12;1799905;79;21195;-77
2020/12/03 08:36:12;;;;;;;42.75;23.02;;;;;;;-1.42;53.84;93175.01;1790965;79;21206;-76
2020/12/03 08:38:42;;;;;;;46.33;26.02;;;;;;;-1.45;54.18;93176.98;1798817;78;21178;-78
2020/12/03 08:41:14;;;;;;;46.75;27.32;;;;;;;-1.41;54.62;93163.78;1791871;77;21223;-80
2020/12/03 08:43:48;;;;;;;43.42;24.07;;;;;;;-1.23;54.28;93168.65;1818982;78;21342;-80
2020/12/03 08:46:19;;;;;;;14.47;9.93;;;;;;;-1.00;54.84;93161.06;1772373;79;21758;-79
2020/12/03 08:48:45;;;;;;;19.37;10.58;;;;;;;-0.58;54.49;93166.30;1807604;78;21418;-80
2020/12/03 08:51:15;;;;;;;17.65;11.70;;;;;;;-0.26;54.10;93162.01;1796310;78;21398;-79
2020/12/03 08:53:49;;;;;;;20.35;12.00;;;;;;;-0.02;54.27;93151.87;1740685;81;21206;-77
2020/12/03 08:56:25;;;;;;;31.35;17.77;;;;;;;0.15;53.56;93146.05;1834235;78;22687;-77
2020/12/03 08:59:09;;;;;;;25.85;16.87;;;;;;;0.47;53.07;93138.44;1832541;78;21183;-78
2020/12/03 09:01:47;;;;;;;35.68;19.57;;;;;;;0.80;49.99;93140.13;1806925;77;21184;-79
2020/12/03 09:04:23;;;;;;;24.80;15.50;;;;;;;0.54;50.63;93132.52;1758146;80;21310;-79
2020/12/03 09:06:53;;;;;;;25.08;13.28;;;;;;;0.08;53.06;93138.62;1797540;77;21139;-80
2020/12/03 09:09:24;;;;;;;21.70;12.30;;;;;;;-0.31;54.26;93127.47;1829394;77;21344;-79
2020/12/03 09:11:53;;;;;;;17.00;9.30;;;;;;;-0.59;54.78;93122.01;1724324;82;21713;-80
2020/12/03 09:14:21;;;;;;;5.70;4.03;;;;;;;-0.85;55.62;93122.85;1766693;80;21467;-77
2020/12/03 09:17:18;;;;;;;6.33;3.92;;;;;;;-1.08;56.74;93119.79;1807278;78;22136;-83
2020/12/03 09:19:48;;;;;;;25.92;9.98;;;;;;;-1.22;58.27;93122.73;1782210;79;21159;-78
2020/12/03 09:22:17;;;;;;;18.50;9.98;;;;;;;-1.32;58.34;93111.13;1809026;78;21352;-78
2020/12/03 09:24:49;;;;;;;16.47;8.63;;;;;;;-1.44;58.76;93105.75;1817136;78;21187;-78
2020/12/03 09:29:18;;;;;;;8.17;4.73;;;;;;;-1.50;60.60;93097.97;1929030;74;22402;-79
2020/12/03 09:31:50;;;;;;;15.72;8.03;;;;;;;-1.43;61.27;93100.08;1802891;75;21099;-79
2020/12/03 09:34:20;;;;;;;18.05;10.40;;;;;;;-1.31;60.97;93098.04;1774686;80;21181;-79
2020/12/03 09:36:49;;;;;;;15.10;8.70;;;;;;;-1.25;59.91;93090.81;1794448;79;21147;-79
2020/12/03 09:39:17;;;;;;;16.23;8.73;;;;;;;-1.24;59.87;93084.39;1777722;79;21157;-80
2020/12/03 09:41:45;;;;;;;17.05;9.95;;;;;;;-1.19;59.60;93078.63;1719797;79;21675;-79
2020/12/03 09:44:15;;;;;;;17.77;9.98;;;;;;;-1.13;60.07;93075.95;1832238;78;21028;-79
2020/12/03 09:46:51;;;;;;;16.95;9.58;;;;;;;-1.07;59.92;93073.30;1774936;79;21881;-81
2020/12/03 09:49:29;;;;;;;18.17;9.07;;;;;;;-1.04;59.86;93068.09;1766664;80;21195;-80
2020/12/03 09:52:03;;;;;;;17.52;10.95;;;;;;;-0.96;60.55;93061.66;1771288;80;21166;-78
2020/12/03 09:54:35;;;;;;;27.27;14.15;;;;;;;-0.83;59.56;93066.70;1792716;79;21162;-81
2020/12/03 09:57:04;;;;;;;33.53;17.70;;;;;;;-0.67;59.25;93060.70;1775756;79;57991;-79
2020/12/03 09:59:32;;;;;;;30.62;15.48;;;;;;;-0.52;57.98;93058.70;1810678;79;21200;-78
2020/12/03 10:02:16;;;;;;;32.67;16.35;;;;;;;-0.40;57.50;93053.34;1828230;78;21189;-79
2020/12/03 10:05:38;;;;;;;27.55;13.30;;;;;;;-0.39;57.15;93047.44;1819683;78;21174;-77
2020/12/03 10:08:47;;;;;;;20.30;10.58;;;;;;;-0.44;57.05;93040.44;1806249;79;22181;-80
2020/12/03 10:11:47;;;;;;;18.52;9.35;;;;;;;-0.56;56.44;93036.45;1805244;79;21628;-80
2020/12/03 10:14:56;;;;;;;31.35;14.98;;;;;;;-0.67;56.52;93024.09;1848489;76;22760;-77
2020/12/03 10:17:28;;;;;;;18.10;8.30;;;;;;;-0.70;58.56;93027.98;1849261;76;21163;-81
2020/12/03 10:19:56;;;;;;;16.32;8.43;;;;;;;-0.67;57.32;93015.30;1849455;77;21069;-82
2020/12/03 10:22:31;;;;;;;20.43;11.18;;;;;;;-0.63;56.68;93021.53;1853569;76;21147;-79
2020/12/03 10:25:19;;;;;;;26.20;13.85;;;;;;;-0.61;55.91;93018.73;1849694;77;21628;-80
2020/12/03 10:27:59;;;;;;;19.48;9.93;;;;;;;-0.63;57.21;93014.30;1854382;77;21314;-79
2020/12/03 10:30:38;;;;;;;16.50;8.90;;;;;;;-0.62;56.30;93020.41;1795292;79;21940;-79
2020/12/03 10:33:17;;;;;;;14.63;7.78;;;;;;;-0.59;57.00;93009.06;1837204;77;21068;-80
2020/12/03 10:35:48;;;;;;;9.23;4.80;;;;;;;-0.51;55.79;93004.94;1844495;77;21135;-81
2020/12/03 10:38:23;;;;;;;37.23;17.62;;;;;;;-0.44;56.35;92996.36;1809738;78;21244;-77
2020/12/03 10:40:55;;;;;;;13.13;7.40;;;;;;;-0.27;59.37;92996.66;1833796;76;21199;-79
2020/12/03 10:43:32;;;;;;;12.75;7.12;;;;;;;-0.16;59.94;92992.97;1830373;77;21111;-82
2020/12/03 10:46:03;;;;;;;13.20;7.65;;;;;;;-0.07;60.18;92991.73;1818417;78;21410;-79
2020/12/03 10:48:36;;;;;;;15.43;9.13;;;;;;;0.07;57.34;92991.89;1839755;77;21224;-79
2020/12/03 10:51:08;;;;;;;20.48;10.48;;;;;;;0.15;55.43;92981.61;1850093;77;21182;-78
2020/12/03 10:53:38;;;;;;;17.40;9.10;;;;;;;0.20;55.95;92980.83;1871484;76;22047;-81
2020/12/03 10:56:08;;;;;;;24.00;10.90;;;;;;;0.28;55.98;92973.00;1899646;74;21130;-80
2020/12/03 10:58:58;;;;;;;14.73;8.93;;;;;;;0.37;57.82;92968.27;1912253;74;21191;-81
2020/12/03 11:03:38;;;;;;;25.27;12.70;;;;;;;0.47;55.03;92961.86;1881520;76;22692;-83
2020/12/03 11:06:06;;;;;;;13.00;8.48;;;;;;;0.43;58.15;92965.58;1766671;80;21240;-80
2020/12/03 11:08:39;;;;;;;16.42;8.15;;;;;;;0.41;56.58;92960.55;1790556;80;21198;-81
2020/12/03 11:11:08;;;;;;;24.70;12.43;;;;;;;0.48;56.98;92966.66;1766452;80;21131;-85
2020/12/03 11:13:37;;;;;;;25.85;13.60;;;;;;;0.55;56.61;92956.70;1720648;81;21235;-84
2020/12/03 11:16:05;;;;;;;33.98;17.05;;;;;;;0.59;55.10;92964.26;1730895;82;21218;-85
2020/12/03 11:18:47;;;;;;;25.15;12.20;;;;;;;0.54;56.23;92953.81;1719497;82;21207;-82
2020/12/03 11:21:27;;;;;;;35.10;18.62;;;;;;;0.56;55.92;92951.00;1759143;80;21218;-81
2020/12/03 11:24:33;;;;;;;40.33;17.60;;;;;;;0.63;56.32;92946.39;1770698;80;21674;-80
2020/12/03 11:27:02;;;;;;;20.17;11.08;;;;;;;0.70;56.66;92962.07;1700591;82;21207;-79
2020/12/03 11:29:38;;;;;;;16.70;10.15;;;;;;;0.70;55.64;92951.37;1752597;80;21172;-79
2020/12/03 11:32:08;;;;;;;33.83;13.05;;;;;;;0.70;55.27;92953.27;1753412;81;21175;-79
2020/12/03 11:34:37;;;;;;;22.27;10.68;;;;;;;0.68;55.94;92945.59;1742594;80;21645;-82
2020/12/03 11:37:07;;;;;;;17.12;9.65;;;;;;;0.70;56.34;92935.87;1772054;80;21195;-81
2020/12/03 11:39:35;;;;;;;11.90;6.08;;;;;;;0.71;56.33;92934.20;1776391;80;21167;-81
2020/12/03 11:42:19;;;;;;;7.08;4.30;;;;;;;0.71;57.55;92934.20;1765036;80;21178;-83
2020/12/03 11:45:10;;;;;;;8.65;5.60;;;;;;;0.67;57.88;92926.63;1777347;80;21147;-82
2020/12/03 11:49:52;;;;;;;4.85;4.08;;;;;;;0.45;58.35;92920.52;1700351;80;21198;-82
2020/12/03 11:52:21;;;;;;;18.37;6.35;;;;;;;0.44;59.38;92922.98;1775614;79;21574;-83
2020/12/03 11:54:49;;;;;;;5.55;2.87;;;;;;;0.45;60.27;92917.84;1689230;84;21229;-79
2020/12/03 11:57:21;;;;;;;12.07;3.20;;;;;;;0.37;59.91;92920.89;1743140;81;21182;-82
2020/12/03 11:59:51;;;;;;;4.87;3.08;;;;;;;0.19;60.20;92917.78;1785875;78;21204;-83
2020/12/03 12:02:19;;;;;;;3.92;2.60;;;;;;;0.08;60.76;92918.62;1818279;78;21176;-81
2020/12/03 12:05:00;;;;;;;6.75;3.02;;;;;;;0.02;60.90;92916.73;1793512;79;21570;-84